Time;durP1;ratioP1;P1;durP2;ratioP2;P2;SDS_P1;SDS_P2;PMS_P1;PMS_P2;Temp;Humidity;BMP_temperature;BMP_pressure;BME280_temperature;BME280_humidity;BME280_pressure;Samples;Min_cycle;Max_cycle;Signal;HPM_P1;HPM_P2
2022/06/09 00:00:25;;;;;;;7.10;4.37;;;20.40;99.90;;;;;;5051206;28;20531;-62
2022/06/09 00:02:55;;;;;;;7.20;5.80;;;20.40;99.90;;;;;;5051288;28;20458;-61
2022/06/09 00:05:23;;;;;;;10.20;6.90;;;20.30;99.90;;;;;;5051273;28;20493;-60
2022/06/09 00:07:52;;;;;;;8.60;6.00;;;20.40;99.90;;;;;;5051195;28;21063;-61
2022/06/09 00:10:24;;;;;;;8.23;6.10;;;20.40;99.90;;;;;;5051179;28;20450;-60
2022/06/09 00:12:51;;;;;;;9.23;6.27;;;20.30;99.90;;;;;;5050853;28;20450;-60
2022/06/09 00:15:19;;;;;;;6.67;5.00;;;20.40;99.90;;;;;;5050901;28;20561;-61
2022/06/09 00:17:46;;;;;;;7.57;5.87;;;20.40;99.90;;;;;;5050995;28;20541;-62
2022/06/09 00:20:16;;;;;;;6.70;5.33;;;20.40;99.90;;;;;;5049868;28;20457;-60
2022/06/09 00:22:43;;;;;;;8.00;5.80;;;20.30;99.90;;;;;;5050832;28;20458;-61
2022/06/09 00:25:11;;;;;;;6.50;5.23;;;20.30;99.90;;;;;;5050777;28;20539;-61
2022/06/09 00:27:40;;;;;;;8.73;6.70;;;20.30;99.90;;;;;;5050634;28;20857;-60
2022/06/09 00:30:09;;;;;;;8.60;7.43;;;20.30;99.90;;;;;;5050477;28;20460;-61
2022/06/09 00:32:37;;;;;;;8.70;7.00;;;20.20;99.90;;;;;;5050759;28;20449;-61
2022/06/09 00:35:04;;;;;;;9.50;7.63;;;20.20;99.90;;;;;;5050788;28;20945;-62
2022/06/09 00:37:32;;;;;;;11.43;8.10;;;20.10;99.90;;;;;;5050705;28;20495;-61
2022/06/09 00:39:59;;;;;;;9.00;7.93;;;20.20;99.90;;;;;;5050561;28;20507;-61
2022/06/09 00:42:27;;;;;;;9.30;7.30;;;20.20;99.90;;;;;;5050535;28;20477;-61
2022/06/09 00:44:55;;;;;;;9.47;8.30;;;20.20;99.90;;;;;;5050184;28;21025;-61
2022/06/09 00:47:27;;;;;;;10.57;8.13;;;20.20;99.90;;;;;;5050387;28;20497;-60
2022/06/09 00:50:00;;;;;;;8.73;7.83;;;20.30;99.90;;;;;;5050543;28;20450;-61
2022/06/09 00:52:32;;;;;;;11.77;9.03;;;20.40;99.90;;;;;;5050267;28;20523;-62
2022/06/09 00:55:04;;;;;;;8.93;8.00;;;20.40;99.90;;;;;;5049968;28;20504;-60
2022/06/09 00:57:35;;;;;;;9.37;8.43;;;20.40;99.90;;;;;;5050412;28;20865;-60
2022/06/09 01:00:08;;;;;;;9.07;7.97;;;20.40;99.90;;;;;;5049934;28;20450;-61
2022/06/09 01:02:36;;;;;;;10.10;9.10;;;20.40;99.90;;;;;;5050420;28;20505;-61
2022/06/09 01:05:05;;;;;;;9.57;8.50;;;20.30;99.90;;;;;;5049858;28;20874;-60
2022/06/09 01:07:37;;;;;;;10.00;8.30;;;20.30;99.90;;;;;;5049945;28;20794;-60
2022/06/09 01:10:06;;;;;;;10.77;9.53;;;20.20;99.90;;;;;;5050084;28;20511;-61
2022/06/09 01:12:36;;;;;;;11.13;8.30;;;20.20;99.90;;;;;;5049872;28;20454;-60
2022/06/09 01:15:08;;;;;;;10.10;8.73;;;20.20;99.90;;;;;;5049557;28;20901;-61
2022/06/09 01:17:52;;;;;;;9.70;8.33;;;20.20;99.90;;;;;;5049814;28;20450;-61
2022/06/09 01:20:30;;;;;;;11.10;8.90;;;20.20;99.90;;;;;;5050128;28;20488;-60
2022/06/09 01:23:27;;;;;;;12.10;9.93;;;20.30;99.90;;;;;;5050283;28;20458;-61
2022/06/09 01:26:25;;;;;;;10.50;9.43;;;20.30;99.90;;;;;;5049958;28;20482;-60
2022/06/09 01:29:06;;;;;;;11.40;9.20;;;20.20;99.90;;;;;;5049924;28;20799;-61
2022/06/09 01:31:42;;;;;;;11.47;10.27;;;20.20;99.90;;;;;;5049647;28;20491;-60
2022/06/09 01:34:25;;;;;;;11.33;9.50;;;20.10;99.90;;;;;;5049705;28;20446;-60
2022/06/09 01:37:02;;;;;;;12.70;11.00;;;20.10;99.90;;;;;;5049282;28;20856;-60
2022/06/09 01:39:42;;;;;;;12.63;10.40;;;20.10;99.90;;;;;;5049758;28;20843;-61
2022/06/09 01:42:21;;;;;;;10.83;9.73;;;20.20;99.90;;;;;;5049585;28;20492;-61
2022/06/09 01:44:48;;;;;;;11.97;10.57;;;20.10;99.90;;;;;;5049261;28;20485;-61
2022/06/09 01:47:21;;;;;;;13.17;11.03;;;20.10;99.90;;;;;;5049258;28;20488;-62
2022/06/09 01:49:50;;;;;;;13.03;11.63;;;20.10;99.90;;;;;;5049389;28;20560;-61
2022/06/09 01:52:17;;;;;;;12.57;11.27;;;20.10;99.90;;;;;;5049571;28;20470;-60
2022/06/09 01:54:46;;;;;;;13.37;10.90;;;20.10;99.90;;;;;;5049908;28;20905;-60
2022/06/09 01:57:20;;;;;;;14.00;12.40;;;20.10;99.90;;;;;;5049511;28;20469;-60
2022/06/09 01:59:51;;;;;;;12.07;10.70;;;20.10;99.90;;;;;;5049395;28;20791;-61
2022/06/09 02:02:26;;;;;;;12.37;10.80;;;20.10;99.90;;;;;;5049317;28;21012;-61
2022/06/09 02:04:58;;;;;;;14.20;11.97;;;20.00;99.90;;;;;;5049505;28;20909;-60
2022/06/09 02:07:29;;;;;;;14.10;12.60;;;19.90;99.90;;;;;;5049435;28;20532;-61
2022/06/09 02:09:56;;;;;;;11.93;10.73;;;19.80;99.90;;;;;;5049279;28;20466;-61
2022/06/09 02:12:28;;;;;;;15.40;13.73;;;19.80;99.90;;;;;;5049275;28;20493;-61
2022/06/09 02:14:59;;;;;;;12.20;10.77;;;19.60;99.90;;;;;;5049560;28;20446;-61
2022/06/09 02:17:27;;;;;;;14.47;11.43;;;19.60;99.90;;;;;;5049323;28;20449;-60
2022/06/09 02:19:54;;;;;;;14.40;12.07;;;19.60;99.90;;;;;;5049015;28;20926;-60
2022/06/09 02:22:21;;;;;;;13.77;12.27;;;19.30;99.90;;;;;;5049252;28;20507;-62
2022/06/09 02:24:49;;;;;;;11.57;10.37;;;19.30;99.90;;;;;;5049089;28;20527;-61
2022/06/09 02:27:16;;;;;;;12.87;10.90;;;19.30;99.90;;;;;;5049265;28;20490;-61
2022/06/09 02:29:43;;;;;;;13.80;11.50;;;19.40;99.90;;;;;;5049237;28;20984;-61
2022/06/09 02:32:10;;;;;;;13.07;11.60;;;19.60;99.90;;;;;;5049347;28;20446;-61
2022/06/09 02:34:38;;;;;;;14.17;11.07;;;19.70;99.90;;;;;;5049133;28;20866;-60
2022/06/09 02:37:05;;;;;;;11.83;10.50;;;19.60;99.90;;;;;;5049042;28;20450;-60
2022/06/09 02:39:32;;;;;;;11.63;8.80;;;19.60;99.90;;;;;;5048972;28;20458;-60
2022/06/09 02:41:59;;;;;;;12.40;9.60;;;19.50;99.90;;;;;;5049084;28;20822;-60
2022/06/09 02:44:26;;;;;;;11.83;9.93;;;19.60;99.90;;;;;;5052022;28;20517;-60
2022/06/09 02:46:53;;;;;;;10.97;9.83;;;19.40;99.90;;;;;;5052218;28;20838;-61
2022/06/09 02:49:21;;;;;;;12.60;10.57;;;19.50;99.90;;;;;;5052679;28;20539;-60
2022/06/09 02:51:50;;;;;;;12.53;9.10;;;19.40;99.90;;;;;;5052476;28;20929;-61
2022/06/09 02:54:17;;;;;;;12.87;11.10;;;19.40;99.90;;;;;;5052655;28;20450;-61
2022/06/09 02:56:44;;;;;;;14.20;9.70;;;19.50;99.90;;;;;;5052430;28;20469;-59
2022/06/09 02:59:11;;;;;;;9.90;8.73;;;19.60;99.90;;;;;;5052441;28;20454;-60
2022/06/09 03:01:38;;;;;;;13.30;9.73;;;19.70;99.90;;;;;;5052163;28;20450;-61
2022/06/09 03:04:06;;;;;;;12.30;11.00;;;19.70;99.90;;;;;;5051911;28;20941;-61
2022/06/09 03:06:33;;;;;;;14.87;11.93;;;19.50;99.90;;;;;;5052576;28;20932;-61
2022/06/09 03:09:02;;;;;;;12.70;11.23;;;19.40;99.90;;;;;;5052381;28;20482;-60
2022/06/09 03:11:29;;;;;;;17.07;15.00;;;19.30;99.90;;;;;;5052239;28;20450;-60
2022/06/09 03:13:56;;;;;;;20.80;17.37;;;19.30;99.90;;;;;;5052108;28;20466;-61
2022/06/09 03:16:23;;;;;;;25.50;20.30;;;19.10;99.90;;;;;;5051965;28;20482;-61
2022/06/09 03:18:50;;;;;;;23.50;18.33;;;19.20;99.90;;;;;;5052460;28;20454;-60
2022/06/09 03:21:17;;;;;;;20.03;17.93;;;19.20;99.90;;;;;;5052107;28;20457;-61
2022/06/09 03:23:44;;;;;;;23.17;19.60;;;19.30;99.90;;;;;;5051787;28;20457;-61
2022/06/09 03:26:13;;;;;;;23.10;20.77;;;19.40;99.90;;;;;;5052101;28;20545;-61
2022/06/09 03:28:41;;;;;;;23.63;21.10;;;19.30;99.90;;;;;;5051575;28;20494;-61
2022/06/09 03:31:08;;;;;;;25.10;22.43;;;19.30;99.90;;;;;;5051990;28;20461;-61
2022/06/09 03:33:35;;;;;;;26.30;23.70;;;19.30;99.90;;;;;;5052090;28;20453;-61
2022/06/09 03:36:03;;;;;;;28.07;25.10;;;19.40;99.90;;;;;;5051927;28;20512;-62
2022/06/09 03:38:30;;;;;;;28.60;22.90;;;19.50;99.90;;;;;;5051906;28;20489;-61
2022/06/09 03:40:57;;;;;;;25.10;22.50;;;19.60;99.90;;;;;;5051694;28;20462;-61
2022/06/09 03:43:26;;;;;;;23.20;20.33;;;19.70;99.90;;;;;;5051302;28;20461;-60
2022/06/09 03:45:53;;;;;;;20.97;18.80;;;19.80;99.90;;;;;;5051715;28;20469;-61
2022/06/09 03:48:20;;;;;;;21.00;16.83;;;19.80;99.90;;;;;;5051443;28;20539;-61
2022/06/09 03:50:47;;;;;;;19.67;16.87;;;19.90;99.90;;;;;;5051504;28;20529;-61
2022/06/09 03:53:14;;;;;;;21.13;19.00;;;19.90;99.90;;;;;;5051504;28;20938;-61
2022/06/09 03:55:41;;;;;;;24.47;19.50;;;20.00;99.90;;;;;;5051307;28;20541;-61
2022/06/09 03:58:08;;;;;;;19.80;17.67;;;20.10;99.90;;;;;;5051323;28;20805;-60
2022/06/09 04:00:37;;;;;;;21.83;17.70;;;20.20;99.90;;;;;;5051234;28;20926;-61
2022/06/09 04:03:04;;;;;;;23.90;18.70;;;20.40;99.90;;;;;;5051410;28;20446;-61
2022/06/09 04:05:32;;;;;;;18.70;16.73;;;20.40;99.90;;;;;;5051192;28;20502;-61
2022/06/09 04:08:00;;;;;;;18.40;16.50;;;20.30;99.90;;;;;;5051108;28;20493;-61
2022/06/09 04:10:30;;;;;;;21.33;19.23;;;20.30;99.90;;;;;;5050948;28;20458;-61
2022/06/09 04:12:57;;;;;;;19.00;17.00;;;20.40;99.90;;;;;;5050957;28;20457;-61
2022/06/09 04:15:25;;;;;;;19.23;17.00;;;20.50;99.90;;;;;;5050972;28;20517;-60
2022/06/09 04:17:53;;;;;;;15.87;14.37;;;20.60;99.90;;;;;;5051119;28;20449;-60
2022/06/09 04:20:24;;;;;;;16.00;12.27;;;20.70;99.90;;;;;;5050986;28;20454;-60
2022/06/09 04:22:51;;;;;;;13.83;12.40;;;20.70;99.90;;;;;;5050905;28;20492;-61
2022/06/09 04:25:20;;;;;;;12.97;11.67;;;20.80;99.90;;;;;;5050604;28;20473;-61
2022/06/09 04:27:47;;;;;;;13.47;12.13;;;21.00;99.90;;;;;;5050732;28;20891;-61
2022/06/09 04:30:15;;;;;;;14.27;12.87;;;21.20;99.90;;;;;;5050816;28;20526;-60
2022/06/09 04:32:42;;;;;;;13.67;12.27;;;21.40;99.90;;;;;;5050810;28;20450;-60
2022/06/09 04:35:12;;;;;;;15.57;13.97;;;21.50;99.90;;;;;;5050595;28;20902;-60
2022/06/09 04:40:21;;;;;;;19.17;12.30;;;21.50;99.90;;;;;;5048140;28;20438;-61
2022/06/09 04:42:48;;;;;;;15.33;13.53;;;21.60;99.90;;;;;;5050541;28;20454;-61
2022/06/09 04:45:16;;;;;;;16.53;14.73;;;21.70;99.90;;;;;;5049836;28;20489;-60
2022/06/09 04:47:43;;;;;;;14.30;12.90;;;21.70;99.90;;;;;;5050043;28;20485;-60
2022/06/09 04:50:12;;;;;;;14.47;12.40;;;21.80;99.90;;;;;;5050162;28;20458;-61
2022/06/09 04:52:40;;;;;;;15.40;13.10;;;21.80;99.90;;;;;;5050041;28;20454;-61
2022/06/09 04:55:09;;;;;;;14.33;12.90;;;21.80;99.90;;;;;;5050134;28;20477;-61
2022/06/09 04:57:36;;;;;;;15.83;13.60;;;21.90;99.90;;;;;;5050274;28;20596;-61
2022/06/09 05:00:04;;;;;;;16.50;13.77;;;22.00;99.90;;;;;;5050211;28;20457;-61
2022/06/09 05:02:31;;;;;;;15.17;13.43;;;22.10;99.90;;;;;;5049723;28;20465;-65
2022/06/09 05:04:58;;;;;;;14.80;12.90;;;22.10;99.90;;;;;;5049563;28;20531;-68
2022/06/09 05:07:27;;;;;;;15.10;13.50;;;22.00;99.90;;;;;;5049916;28;20807;-66
2022/06/09 05:09:54;;;;;;;14.63;13.13;;;22.00;99.90;;;;;;5049821;28;20600;-66
2022/06/09 05:12:22;;;;;;;16.57;14.80;;;22.00;99.90;;;;;;5049859;28;20461;-64
2022/06/09 05:14:51;;;;;;;15.03;13.50;;;21.80;99.90;;;;;;5050002;28;20520;-65
2022/06/09 05:17:18;;;;;;;16.23;14.40;;;21.70;99.90;;;;;;5049712;28;20541;-66
2022/06/09 05:19:46;;;;;;;16.70;15.10;;;21.70;99.90;;;;;;5050159;28;20771;-66
2022/06/09 05:22:13;;;;;;;18.37;15.93;;;21.50;99.90;;;;;;5049833;28;20456;-64
2022/06/09 05:24:41;;;;;;;16.37;14.77;;;21.70;99.90;;;;;;5049811;28;20531;-62
2022/06/09 05:27:11;;;;;;;17.57;15.10;;;21.70;99.90;;;;;;5049776;28;20458;-64
2022/06/09 05:29:38;;;;;;;19.60;17.47;;;21.60;99.90;;;;;;5049346;28;21068;-62
2022/06/09 05:32:05;;;;;;;22.60;16.60;;;21.60;99.90;;;;;;5049547;28;20543;-63
2022/06/09 05:34:32;;;;;;;21.10;17.60;;;21.60;99.90;;;;;;5049423;28;20535;-63
2022/06/09 05:36:59;;;;;;;19.40;17.27;;;21.40;99.90;;;;;;5049491;28;21021;-63
2022/06/09 05:45:00;;;;;;;20.60;18.10;;;21.30;99.90;;;;;;5049093;28;20483;-63
2022/06/09 05:47:27;;;;;;;22.17;17.80;;;21.40;99.90;;;;;;5049498;28;20458;-62
2022/06/09 05:49:54;;;;;;;22.30;18.30;;;21.40;99.90;;;;;;5049316;28;20997;-64
2022/06/09 05:52:24;;;;;;;19.30;17.13;;;21.50;99.90;;;;;;5048997;28;20454;-63
2022/06/09 05:54:51;;;;;;;19.37;17.40;;;21.60;99.90;;;;;;5048994;28;20469;-59
2022/06/09 05:57:21;;;;;;;20.87;17.37;;;21.60;99.90;;;;;;5049144;28;20457;-64
2022/06/09 05:59:48;;;;;;;16.80;15.07;;;21.70;99.90;;;;;;5049028;28;20507;-63
2022/06/09 06:02:17;;;;;;;17.10;15.30;;;21.70;99.90;;;;;;5049524;28;20872;-63
2022/06/09 06:04:44;;;;;;;16.60;14.90;;;21.80;99.90;;;;;;5049664;28;20934;-64
2022/06/09 06:07:12;;;;;;;15.90;14.20;;;21.90;99.90;;;;;;5048878;28;20937;-63
2022/06/09 06:09:39;;;;;;;15.93;14.33;;;22.00;99.90;;;;;;5049464;28;20559;-66
2022/06/09 06:12:07;;;;;;;16.10;14.50;;;22.10;99.90;;;;;;5049359;28;20883;-63
2022/06/09 06:14:36;;;;;;;15.20;13.60;;;22.30;99.90;;;;;;5049322;28;20563;-62
2022/06/09 06:17:04;;;;;;;14.40;13.00;;;22.40;99.90;;;;;;5049541;28;20480;-62
2022/06/09 06:19:31;;;;;;;15.00;13.10;;;22.40;99.90;;;;;;5053060;28;20457;-62
2022/06/09 06:21:58;;;;;;;14.40;12.90;;;22.40;99.90;;;;;;5053041;28;20445;-64
2022/06/09 06:24:26;;;;;;;13.30;11.90;;;22.50;99.90;;;;;;5052999;28;20450;-66
2022/06/09 06:26:53;;;;;;;14.50;13.00;;;22.70;99.90;;;;;;5052234;28;20845;-63
2022/06/09 06:29:23;;;;;;;15.77;13.87;;;22.80;99.90;;;;;;5052904;28;20532;-62
2022/06/09 06:31:53;;;;;;;17.20;13.73;;;22.90;99.90;;;;;;5052951;28;20446;-64
2022/06/09 06:34:20;;;;;;;17.83;15.93;;;23.00;99.90;;;;;;5052558;28;20454;-60
2022/06/09 06:36:48;;;;;;;16.40;14.73;;;22.90;99.90;;;;;;5052659;28;20481;-59
2022/06/09 06:39:15;;;;;;;16.20;14.67;;;22.70;99.90;;;;;;5052925;28;20519;-65
2022/06/09 06:41:43;;;;;;;16.20;14.80;;;22.70;99.90;;;;;;5052698;28;20657;-57
2022/06/09 06:44:12;;;;;;;15.03;13.63;;;22.70;99.90;;;;;;5052180;28;21062;-60
2022/06/09 06:46:39;;;;;;;16.77;15.03;;;23.00;99.90;;;;;;5052402;28;20473;-60
2022/06/09 06:49:08;;;;;;;16.27;14.67;;;23.30;99.90;;;;;;5052438;28;20485;-65
2022/06/09 06:51:36;;;;;;;17.10;13.30;;;23.60;99.90;;;;;;5052386;28;20454;-61
2022/06/09 06:54:05;;;;;;;14.93;13.60;;;23.90;99.90;;;;;;5052373;28;20458;-65
2022/06/09 06:56:33;;;;;;;14.30;12.90;;;24.20;99.90;;;;;;5052649;28;20473;-59
2022/06/09 06:59:01;;;;;;;13.87;12.47;;;24.30;99.90;;;;;;5052647;28;20775;-58
2022/06/09 07:01:28;;;;;;;15.43;14.10;;;24.40;99.90;;;;;;5052495;28;20537;-60
2022/06/09 07:03:55;;;;;;;15.30;13.70;;;24.50;99.90;;;;;;5052286;28;20815;-60
2022/06/09 07:06:24;;;;;;;15.13;13.67;;;24.40;99.90;;;;;;5052168;28;20473;-59
2022/06/09 07:08:51;;;;;;;15.63;13.97;;;24.40;99.90;;;;;;5052204;28;20634;-59
2022/06/09 07:11:18;;;;;;;17.23;14.97;;;24.20;99.90;;;;;;5052155;28;20457;-59
2022/06/09 07:13:45;;;;;;;14.57;13.07;;;24.10;99.90;;;;;;5051699;28;20458;-60
2022/06/09 07:16:13;;;;;;;17.53;15.83;;;23.80;99.90;;;;;;5051505;28;20840;-61
2022/06/09 07:18:40;;;;;;;17.27;15.50;;;23.70;99.90;;;;;;5051739;28;20805;-66
2022/06/09 07:21:08;;;;;;;15.50;14.00;;;23.60;99.90;;;;;;5052258;28;20450;-60
2022/06/09 07:23:38;;;;;;;16.20;14.60;;;23.80;99.90;;;;;;5052183;28;20575;-61
2022/06/09 07:26:05;;;;;;;19.40;17.53;;;24.10;99.90;;;;;;5051932;28;20474;-59
2022/06/09 07:28:33;;;;;;;16.53;14.83;;;24.30;99.90;;;;;;5050993;28;20584;-60
2022/06/09 07:31:01;;;;;;;15.40;13.83;;;24.50;99.90;;;;;;5051956;28;20875;-59
2022/06/09 07:33:31;;;;;;;15.17;13.67;;;24.70;99.90;;;;;;5051855;28;20852;-59
2022/06/09 07:35:59;;;;;;;17.67;16.00;;;24.90;99.90;;;;;;5051729;28;20481;-59
2022/06/09 07:38:28;;;;;;;17.77;15.30;;;24.80;99.90;;;;;;5051625;28;20454;-59
2022/06/09 07:40:56;;;;;;;14.73;13.33;;;24.80;99.90;;;;;;5051227;28;20927;-58
2022/06/09 07:43:23;;;;;;;15.70;14.00;;;25.00;99.90;;;;;;5050967;28;20515;-60
2022/06/09 07:45:51;;;;;;;17.30;15.70;;;25.30;99.90;;;;;;5051105;28;20537;-64
2022/06/09 07:48:20;;;;;;;16.53;14.93;;;25.60;99.90;;;;;;5051364;28;20537;-59
2022/06/09 07:50:49;;;;;;;16.03;14.53;;;25.60;99.90;;;;;;5051411;28;20454;-58
2022/06/09 07:53:17;;;;;;;15.77;14.17;;;25.40;99.90;;;;;;5051451;28;20458;-58
2022/06/09 07:55:45;;;;;;;14.20;12.80;;;25.20;99.90;;;;;;5051109;28;20517;-68
2022/06/09 07:58:14;;;;;;;16.13;14.43;;;25.10;99.90;;;;;;5051045;28;20941;-58
2022/06/09 08:00:42;;;;;;;15.87;14.10;;;25.20;99.90;;;;;;5051104;28;20433;-58
2022/06/09 08:03:11;;;;;;;17.80;15.30;;;25.10;99.90;;;;;;5051247;28;20450;-58
2022/06/09 08:05:38;;;;;;;15.17;13.67;;;25.20;99.90;;;;;;5051246;28;20877;-59
2022/06/09 08:08:06;;;;;;;16.63;14.93;;;25.40;99.90;;;;;;5051230;28;20545;-59
2022/06/09 08:10:33;;;;;;;17.57;15.77;;;25.80;99.90;;;;;;5050768;28;20489;-58
2022/06/09 08:13:03;;;;;;;19.27;17.40;;;26.10;99.90;;;;;;5050456;28;20454;-59
2022/06/09 08:15:33;;;;;;;17.73;15.93;;;26.20;99.90;;;;;;5050807;28;20509;-59
2022/06/09 08:18:01;;;;;;;15.87;14.00;;;26.50;99.90;;;;;;5050364;28;20950;-58
2022/06/09 08:20:30;;;;;;;19.90;14.30;;;26.70;99.90;;;;;;5050608;28;20565;-58
2022/06/09 08:23:03;;;;;;;15.13;13.67;;;26.70;99.90;;;;;;5050610;28;20997;-59
2022/06/09 08:25:30;;;;;;;14.60;13.30;;;26.70;99.90;;;;;;5050653;28;20473;-59
2022/06/09 08:27:57;;;;;;;13.87;12.47;;;26.90;99.90;;;;;;5050853;28;20921;-59
2022/06/09 08:30:25;;;;;;;13.17;11.83;;;27.20;99.90;;;;;;5050545;28;20568;-59
2022/06/09 08:32:53;;;;;;;16.53;13.90;;;27.40;99.90;;;;;;5050288;28;20540;-58
2022/06/09 08:35:21;;;;;;;13.70;12.33;;;27.50;99.90;;;;;;5050477;28;20523;-57
2022/06/09 08:37:51;;;;;;;14.00;11.80;;;27.50;99.90;;;;;;5050585;28;20458;-59
2022/06/09 08:40:22;;;;;;;16.63;15.00;;;27.50;99.90;;;;;;5049894;28;20461;-58
2022/06/09 08:43:07;;;;;;;15.10;13.60;;;27.50;99.90;;;;;;5050503;28;20457;-58
2022/06/09 08:45:37;;;;;;;14.90;13.47;;;27.50;99.90;;;;;;5049798;28;20493;-58
2022/06/09 08:48:11;;;;;;;16.03;12.30;;;27.40;99.90;;;;;;5050379;28;20449;-57
2022/06/09 08:50:42;;;;;;;13.20;11.90;;;27.50;99.90;;;;;;5049788;28;20501;-59
2022/06/09 08:53:13;;;;;;;12.43;11.23;;;27.60;99.90;;;;;;5049825;28;20496;-57
2022/06/09 08:55:46;;;;;;;13.73;11.30;;;27.50;99.90;;;;;;5050074;28;20474;-58
2022/06/09 08:58:22;;;;;;;12.50;11.30;;;27.50;99.90;;;;;;5050131;28;20848;-58
2022/06/09 09:00:55;;;;;;;14.40;13.00;;;27.70;99.90;;;;;;5050220;28;20450;-58
2022/06/09 09:03:29;;;;;;;11.30;10.30;;;27.90;99.90;;;;;;5050310;28;20464;-57
2022/06/09 09:06:04;;;;;;;13.27;10.80;;;28.00;99.90;;;;;;5050160;28;20523;-57
2022/06/09 09:08:31;;;;;;;13.57;12.10;;;27.90;99.90;;;;;;5050250;28;20941;-57
2022/06/09 09:11:20;;;;;;;14.37;12.13;;;27.50;99.90;;;;;;5049871;28;20482;-58
2022/06/09 09:13:54;;;;;;;13.70;12.30;;;27.20;99.90;;;;;;5049858;28;20454;-57
2022/06/09 09:16:30;;;;;;;13.73;11.80;;;27.00;99.90;;;;;;5049957;28;21017;-59
2022/06/09 09:19:05;;;;;;;12.53;11.20;;;26.70;99.90;;;;;;5049632;28;20457;-58
2022/06/09 09:21:54;;;;;;;13.93;12.53;;;26.90;99.90;;;;;;5049774;28;20489;-58
2022/06/09 09:24:30;;;;;;;13.00;11.70;;;27.00;99.90;;;;;;5049670;28;20458;-58
2022/06/09 09:27:08;;;;;;;11.20;10.00;;;26.60;99.90;;;;;;5049709;28;20450;-59
2022/06/09 09:29:44;;;;;;;11.97;10.00;;;26.50;99.90;;;;;;5049402;28;20496;-58
2022/06/09 09:32:15;;;;;;;11.37;10.20;;;26.60;99.90;;;;;;5049640;28;20445;-58
2022/06/09 09:34:45;;;;;;;11.57;10.37;;;26.70;99.90;;;;;;5049649;28;20458;-58
2022/06/09 09:37:21;;;;;;;10.70;9.00;;;27.00;99.90;;;;;;5049648;28;20489;-57
2022/06/09 09:39:51;;;;;;;10.53;8.90;;;27.30;99.90;;;;;;5049453;28;20446;-57
2022/06/09 09:42:22;;;;;;;13.20;10.10;;;27.70;99.90;;;;;;5049266;28;20457;-56
2022/06/09 09:45:15;;;;;;;9.67;8.40;;;27.90;99.90;;;;;;5049022;28;20485;-57
2022/06/09 09:47:47;;;;;;;10.20;9.17;;;28.30;99.90;;;;;;5049539;28;20974;-57
2022/06/09 09:50:24;;;;;;;10.40;9.33;;;28.60;99.90;;;;;;5049459;28;20509;-58
2022/06/09 09:52:57;;;;;;;11.00;9.27;;;28.60;99.90;;;;;;5054301;28;20488;-59
2022/06/09 09:55:32;;;;;;;13.60;9.33;;;28.70;99.90;;;;;;5055443;28;20482;-59
2022/06/09 09:58:28;;;;;;;9.60;7.50;;;28.90;99.90;;;;;;5056034;28;20457;-59
2022/06/09 10:00:58;;;;;;;11.27;9.47;;;29.20;99.90;;;;;;5020934;28;20461;-57
2022/06/09 10:09:18;;;;;;;10.33;9.27;;;29.30;99.90;;;;;;5055617;28;20429;-58
2022/06/09 10:11:54;;;;;;;10.77;9.67;;;29.30;98.20;;;;;;5055897;28;20487;-59
2022/06/09 10:14:36;;;;;;;8.53;7.53;;;29.10;98.20;;;;;;5056054;28;20929;-57
2022/06/09 10:17:05;;;;;;;10.43;7.87;;;29.10;99.00;;;;;;5056109;28;20453;-57
2022/06/09 10:19:35;;;;;;;10.17;7.83;;;28.70;98.50;;;;;;5055700;28;20528;-57
2022/06/09 10:22:16;;;;;;;10.50;8.17;;;28.70;98.70;;;;;;5055980;28;20454;-57
2022/06/09 10:24:48;;;;;;;10.87;8.10;;;28.90;98.50;;;;;;5055612;28;20472;-58
2022/06/09 10:27:19;;;;;;;9.00;7.30;;;29.10;99.30;;;;;;5055767;28;20511;-58
2022/06/09 10:29:51;;;;;;;8.07;6.70;;;29.30;98.40;;;;;;5055762;28;20481;-58
2022/06/09 10:32:23;;;;;;;8.70;7.80;;;29.50;98.50;;;;;;5055665;28;20511;-58
2022/06/09 10:34:59;;;;;;;12.33;9.17;;;29.90;98.30;;;;;;5055870;28;20962;-58
2022/06/09 10:37:38;;;;;;;8.90;7.97;;;30.00;96.90;;;;;;5055865;28;20902;-57
2022/06/09 10:40:14;;;;;;;9.50;8.10;;;30.40;95.30;;;;;;5055726;28;20455;-59
2022/06/09 10:42:50;;;;;;;9.67;7.20;;;30.50;95.30;;;;;;5055723;28;20450;-58
2022/06/09 10:45:21;;;;;;;9.30;7.63;;;30.40;92.90;;;;;;5055372;28;20849;-58
2022/06/09 10:56:30;;;;;;;8.00;6.10;;;30.50;93.00;;;;;;5055513;28;21000;-57
2022/06/09 10:59:03;;;;;;;8.67;5.30;;;30.60;92.10;;;;;;5055456;28;20536;-58
2022/06/09 11:01:32;;;;;;;8.07;5.50;;;30.60;92.50;;;;;;5055553;28;20454;-58
2022/06/09 11:04:01;;;;;;;5.50;4.27;;;30.50;91.00;;;;;;5052883;28;20450;-57
2022/06/09 11:06:57;;;;;;;6.40;4.57;;;30.70;90.50;;;;;;5052376;28;20977;-58
2022/06/09 11:09:35;;;;;;;7.37;4.70;;;31.10;90.00;;;;;;5051878;28;20512;-58
2022/06/09 11:12:14;;;;;;;8.53;5.13;;;31.40;90.10;;;;;;5052218;28;20454;-57
2022/06/09 11:15:00;;;;;;;6.40;4.80;;;31.60;87.70;;;;;;5052142;28;20531;-58
2022/06/09 11:17:39;;;;;;;8.20;4.73;;;31.80;87.90;;;;;;5051691;28;20460;-57
2022/06/09 11:20:20;;;;;;;5.63;4.77;;;32.10;83.50;;;;;;5051916;28;20830;-57
2022/06/09 11:22:56;;;;;;;10.23;7.17;;;31.80;85.40;;;;;;5051873;28;20855;-58
2022/06/09 11:25:39;;;;;;;9.30;5.10;;;31.90;84.30;;;;;;5051993;28;20527;-58
2022/06/09 11:28:44;;;;;;;6.50;4.87;;;32.10;83.20;;;;;;5052069;28;20457;-58
2022/06/09 11:31:40;;;;;;;7.23;5.70;;;32.30;83.00;;;;;;5051794;28;20485;-57
2022/06/09 11:34:28;;;;;;;7.27;4.87;;;32.10;84.00;;;;;;5049693;28;20484;-58
2022/06/09 11:37:01;;;;;;;9.93;5.60;;;31.90;86.50;;;;;;5051734;28;20900;-57
2022/06/09 11:39:42;;;;;;;6.77;4.93;;;31.60;84.10;;;;;;5051711;28;20541;-58
2022/06/09 11:42:23;;;;;;;9.20;8.30;;;31.40;85.70;;;;;;5051787;28;20934;-58
2022/06/09 11:44:53;;;;;;;10.33;5.90;;;31.30;84.00;;;;;;5051134;28;20485;-58
2022/06/09 11:47:33;;;;;;;5.80;4.93;;;31.10;79.10;;;;;;5051590;28;20438;-57
2022/06/09 11:50:05;;;;;;;7.40;5.40;;;31.00;85.80;;;;;;5051539;28;20863;-58
2022/06/09 11:52:40;;;;;;;9.77;5.40;;;31.30;81.40;;;;;;5051902;28;20450;-60
2022/06/09 11:55:27;;;;;;;8.50;4.70;;;31.30;79.80;;;;;;5050981;28;20958;-58
2022/06/09 11:57:56;;;;;;;9.80;8.80;;;31.50;78.20;;;;;;5051430;28;20446;-58
2022/06/09 12:00:42;;;;;;;6.10;5.27;;;31.50;81.50;;;;;;5051479;28;20449;-58
2022/06/09 12:03:58;;;;;;;8.77;6.63;;;31.20;84.70;;;;;;5051228;28;20453;-58
2022/06/09 12:06:34;;;;;;;7.07;5.23;;;30.90;83.40;;;;;;4986774;28;20490;-58
2022/06/09 12:09:09;;;;;;;7.83;5.50;;;30.60;80.40;;;;;;4989156;28;20448;-58
2022/06/09 12:11:55;;;;;;;7.27;5.60;;;30.30;82.60;;;;;;5030305;28;21008;-57
2022/06/09 12:14:28;;;;;;;8.90;5.57;;;30.00;86.80;;;;;;5050628;28;20450;-58
2022/06/09 12:17:01;;;;;;;6.63;4.37;;;29.80;84.20;;;;;;5050273;28;21035;-58
2022/06/09 12:19:32;;;;;;;7.30;4.33;;;29.80;84.10;;;;;;5051079;28;20450;-58
2022/06/09 12:22:19;;;;;;;6.50;4.90;;;29.60;84.80;;;;;;5051022;28;20540;-58
2022/06/09 12:25:32;;;;;;;9.00;4.07;;;29.60;84.20;;;;;;5050317;28;20813;-57
2022/06/09 12:27:59;;;;;;;8.60;4.50;;;29.40;86.30;;;;;;5044863;28;20861;-57
2022/06/09 12:30:37;;;;;;;6.80;4.77;;;29.20;88.40;;;;;;5050789;28;20489;-58
2022/06/09 12:33:32;;;;;;;6.53;4.60;;;28.90;90.80;;;;;;5050552;28;20470;-58
2022/06/09 12:36:03;;;;;;;7.70;5.13;;;28.70;96.10;;;;;;5050626;28;20473;-59
2022/06/09 12:38:35;;;;;;;10.43;6.80;;;28.60;96.50;;;;;;5050618;28;20450;-57
2022/06/09 12:41:13;;;;;;;17.87;7.37;;;28.30;99.90;;;;;;5050572;28;20850;-58
2022/06/09 12:43:43;;;;;;;14.33;6.43;;;28.10;99.90;;;;;;5050236;28;20489;-59
2022/06/09 12:46:21;;;;;;;9.20;6.37;;;28.10;99.90;;;;;;5050249;28;20474;-57
2022/06/09 12:48:50;;;;;;;8.73;6.77;;;27.80;99.90;;;;;;5050527;28;20458;-57
2022/06/09 12:51:25;;;;;;;11.10;9.00;;;27.60;99.90;;;;;;5050252;28;20535;-58
2022/06/09 12:54:00;;;;;;;11.80;8.47;;;27.30;99.90;;;;;;5050392;28;20449;-58
2022/06/09 12:56:33;;;;;;;11.80;8.50;;;27.00;99.90;;;;;;5050273;28;20814;-58
2022/06/09 12:59:05;;;;;;;13.63;8.50;;;26.80;99.90;;;;;;5050150;28;20992;-57
2022/06/09 13:01:34;;;;;;;12.03;8.77;;;26.70;99.90;;;;;;5050217;28;20458;-58
2022/06/09 13:04:05;;;;;;;20.03;10.30;;;26.40;99.90;;;;;;5049911;28;20450;-58
2022/06/09 13:06:35;;;;;;;15.30;10.47;;;26.10;99.90;;;;;;5050015;28;20474;-58
2022/06/09 13:09:14;;;;;;;9.67;8.00;;;25.70;99.90;;;;;;5049847;28;20830;-58
2022/06/09 13:14:28;;;;;;;12.83;9.53;;;25.20;99.90;;;;;;5049703;28;20487;-57
2022/06/09 13:17:00;;;;;;;15.20;9.07;;;24.90;99.90;;;;;;5049627;28;20457;-57
2022/06/09 13:19:31;;;;;;;13.27;7.53;;;24.60;99.90;;;;;;5049915;28;20450;-58